Terminal Aerodrome Forecast
Issued by NWS

Home | Current Version | Previous Version | Text Only | Print | Product List | Glossary On
Versions: 1 2 3 4 5 6 7 8 9 10 11 12
000
FTUS41 KPHI 291131
TAFPNE
TAF
KPNE 291131Z 2912/3012 20004KT P6SM SCT200
     FM291700 22008KT P6SM BKN200
     FM300100 20006KT P6SM -SHRA FEW030 OVC060
      TEMPO 3003/3007 4SM SHRA BKN030
     FM300800 36003KT 6SM -RA BR OVC020
      TEMPO 3010/3012 2SM +RA BR OVC007=

USA.gov is the U.S. government's official web portal to all federal, state and local government web resources and services.